Time;durP1;ratioP1;P1;durP2;ratioP2;P2;SDS_P1;SDS_P2;PMS_P1;PMS_P2;Temp;Humidity;BMP_temperature;BMP_pressure;BME280_temperature;BME280_humidity;BME280_pressure;Samples;Min_cycle;Max_cycle;Signal;HPM_P1;HPM_P2
2021/06/25 00:01:04;;;;;;;3.20;2.67;;;19.40;99.90;;;;;;5053008;28;20183;-51
2021/06/25 00:03:30;;;;;;;3.30;2.70;;;19.50;99.90;;;;;;5053087;28;20167;-52
2021/06/25 00:05:56;;;;;;;3.20;2.53;;;19.50;99.90;;;;;;5053488;28;20401;-51
2021/06/25 00:08:21;;;;;;;2.27;2.03;;;19.20;99.90;;;;;;5052829;28;20158;-54
2021/06/25 00:10:47;;;;;;;3.97;2.50;;;19.20;99.90;;;;;;5066884;28;20210;-53
2021/06/25 00:13:13;;;;;;;3.03;2.83;;;19.30;99.90;;;;;;5073122;28;20159;-50
2021/06/25 00:15:39;;;;;;;3.20;2.50;;;19.40;99.90;;;;;;5072862;28;20986;-53
2021/06/25 00:18:05;;;;;;;2.80;2.20;;;19.50;99.90;;;;;;5072797;28;20639;-53
2021/06/25 00:20:30;;;;;;;2.93;2.73;;;19.40;99.90;;;;;;5072989;28;20190;-54
2021/06/25 00:22:56;;;;;;;2.60;2.40;;;19.40;99.90;;;;;;5072538;28;20265;-54
2021/06/25 00:25:23;;;;;;;2.57;2.37;;;19.30;99.90;;;;;;5073916;28;20188;-51
2021/06/25 00:27:49;;;;;;;2.70;2.43;;;19.30;99.90;;;;;;5077261;28;20224;-51
2021/06/25 00:30:16;;;;;;;2.77;2.57;;;19.30;99.90;;;;;;5073445;28;20440;-53
2021/06/25 00:32:45;;;;;;;2.50;2.30;;;19.40;99.90;;;;;;5045446;28;20190;-54
2021/06/25 00:35:11;;;;;;;2.30;2.13;;;19.40;99.90;;;;;;5056195;28;20480;-51
2021/06/25 00:37:37;;;;;;;2.10;1.90;;;19.20;99.90;;;;;;5056590;28;20405;-52
2021/06/25 00:40:04;;;;;;;2.90;2.20;;;19.10;99.90;;;;;;5056216;28;20194;-52
2021/06/25 00:42:30;;;;;;;5.03;2.43;;;19.20;99.90;;;;;;5056460;28;20298;-52
2021/06/25 00:44:55;;;;;;;2.30;2.10;;;19.10;99.90;;;;;;5056558;28;20454;-51
2021/06/25 00:47:21;;;;;;;2.20;2.03;;;19.10;99.90;;;;;;5056765;28;20257;-54
2021/06/25 00:49:46;;;;;;;2.03;1.83;;;19.10;99.90;;;;;;5056342;28;20289;-54
2021/06/25 00:52:17;;;;;;;2.23;1.90;;;19.20;99.90;;;;;;5056314;28;20246;-55
2021/06/25 00:54:43;;;;;;;2.03;1.83;;;19.20;99.90;;;;;;5054958;28;20244;-51
2021/06/25 00:57:09;;;;;;;1.93;1.83;;;19.10;99.90;;;;;;5056471;28;20417;-54
2021/06/25 00:59:34;;;;;;;1.60;1.50;;;19.00;99.90;;;;;;5056221;28;20186;-54
2021/06/25 01:02:00;;;;;;;1.93;1.80;;;19.10;99.90;;;;;;5075610;28;20180;-51
2021/06/25 01:04:26;;;;;;;1.47;1.37;;;19.10;99.90;;;;;;5076510;28;20200;-52
2021/06/25 01:06:51;;;;;;;1.70;1.50;;;19.10;99.90;;;;;;5076701;28;20170;-53
2021/06/25 01:09:20;;;;;;;1.33;1.23;;;19.20;99.90;;;;;;5076065;28;20552;-53
2021/06/25 01:11:46;;;;;;;1.83;1.73;;;19.30;99.90;;;;;;5069160;28;20170;-52
2021/06/25 01:14:11;;;;;;;1.47;1.37;;;19.20;99.90;;;;;;5055675;28;20937;-53
2021/06/25 01:16:37;;;;;;;1.40;1.10;;;19.20;99.90;;;;;;5055774;28;20194;-53
2021/06/25 01:19:10;;;;;;;3.00;1.60;;;19.20;99.90;;;;;;5055665;28;20173;-52
2021/06/25 01:21:36;;;;;;;1.67;1.57;;;19.20;99.90;;;;;;5055769;28;20530;-54
2021/06/25 01:24:01;;;;;;;1.90;1.70;;;19.10;99.90;;;;;;5055864;28;20496;-54
2021/06/25 01:26:27;;;;;;;2.40;1.50;;;19.10;99.90;;;;;;5055398;28;20220;-52
2021/06/25 01:28:53;;;;;;;1.97;1.20;;;19.10;99.90;;;;;;5056195;28;20170;-52
2021/06/25 01:31:19;;;;;;;1.47;1.37;;;19.10;99.90;;;;;;5069269;28;20667;-52
2021/06/25 01:33:45;;;;;;;1.40;1.30;;;19.10;99.90;;;;;;5075314;28;20186;-54
2021/06/25 01:36:11;;;;;;;3.47;1.70;;;19.10;99.90;;;;;;5075509;28;20434;-50
2021/06/25 01:38:40;;;;;;;1.90;1.20;;;19.10;99.90;;;;;;5075169;28;20404;-51
2021/06/25 01:41:06;;;;;;;1.27;1.17;;;19.10;99.90;;;;;;5072514;28;20432;-53
2021/06/25 01:43:34;;;;;;;1.57;1.40;;;19.10;99.90;;;;;;5075565;28;20916;-50
2021/06/25 01:46:00;;;;;;;1.40;1.20;;;19.00;99.90;;;;;;5075174;28;20166;-51
2021/06/25 01:48:25;;;;;;;1.20;1.10;;;19.10;99.90;;;;;;5075312;28;20499;-53
2021/06/25 01:50:51;;;;;;;1.23;1.10;;;19.10;99.90;;;;;;5075585;28;20447;-53
2021/06/25 01:53:18;;;;;;;1.10;1.00;;;19.10;99.90;;;;;;5075548;28;20169;-53
2021/06/25 01:55:45;;;;;;;1.67;1.23;;;18.90;99.90;;;;;;5075265;28;20168;-51
2021/06/25 01:58:19;;;;;;;1.07;0.97;;;18.90;99.90;;;;;;5075389;28;20487;-52
2021/06/25 02:01:01;;;;;;;2.50;1.50;;;18.70;99.90;;;;;;5075233;28;20951;-51
2021/06/25 02:03:26;;;;;;;1.20;1.10;;;18.80;99.90;;;;;;5075355;28;20748;-53
2021/06/25 02:05:52;;;;;;;1.30;1.20;;;18.80;99.90;;;;;;5075078;28;20404;-53
2021/06/25 02:08:18;;;;;;;1.30;1.10;;;18.90;99.90;;;;;;5075187;28;20749;-51
2021/06/25 02:10:43;;;;;;;1.30;1.20;;;18.80;99.90;;;;;;5074662;28;20243;-53
2021/06/25 02:13:09;;;;;;;1.03;0.93;;;18.90;99.90;;;;;;5075320;28;20209;-51
2021/06/25 02:15:35;;;;;;;1.00;0.90;;;18.70;99.90;;;;;;5074814;28;20190;-51
2021/06/25 02:18:00;;;;;;;1.03;0.93;;;18.70;99.90;;;;;;5075287;28;20174;-53
2021/06/25 02:20:26;;;;;;;1.13;1.03;;;18.80;99.90;;;;;;5074876;28;20192;-51
2021/06/25 02:22:51;;;;;;;1.10;1.00;;;18.80;99.90;;;;;;5075259;28;20522;-54
2021/06/25 02:25:17;;;;;;;1.40;1.30;;;18.90;99.90;;;;;;5074978;28;20200;-50
2021/06/25 02:27:43;;;;;;;1.27;1.17;;;18.80;99.90;;;;;;5075301;28;20185;-49
2021/06/25 02:30:15;;;;;;;1.60;1.10;;;18.70;99.90;;;;;;5075766;28;20273;-50
2021/06/25 02:32:41;;;;;;;1.23;1.13;;;18.80;99.90;;;;;;5075526;28;20393;-50
2021/06/25 02:35:07;;;;;;;1.43;1.33;;;18.90;99.90;;;;;;5076224;28;20451;-50
2021/06/25 02:37:33;;;;;;;1.17;1.07;;;18.90;99.90;;;;;;5075484;28;20170;-54
2021/06/25 02:39:59;;;;;;;1.10;1.00;;;18.90;99.90;;;;;;5074236;28;20464;-53
2021/06/25 02:42:25;;;;;;;1.67;1.50;;;19.00;99.90;;;;;;5074121;28;20585;-54
2021/06/25 02:44:50;;;;;;;2.30;1.57;;;19.00;99.90;;;;;;5074176;28;20404;-52
2021/06/25 02:47:16;;;;;;;1.40;1.30;;;19.10;99.90;;;;;;5073754;28;20170;-51
2021/06/25 02:49:41;;;;;;;2.23;1.73;;;19.10;99.90;;;;;;5073520;28;20204;-54
2021/06/25 02:52:07;;;;;;;2.70;1.40;;;19.10;99.90;;;;;;5074162;28;20249;-52
2021/06/25 02:54:33;;;;;;;1.60;1.50;;;19.10;99.90;;;;;;5073777;28;20194;-55
2021/06/25 02:56:58;;;;;;;2.00;1.63;;;19.20;99.90;;;;;;5073699;28;20174;-52
2021/06/25 02:59:24;;;;;;;1.60;1.50;;;19.20;99.90;;;;;;5074026;28;20201;-54
2021/06/25 03:01:50;;;;;;;1.30;1.20;;;19.20;99.90;;;;;;5073618;28;20623;-54
2021/06/25 03:04:15;;;;;;;2.53;1.73;;;19.20;99.90;;;;;;5074046;28;20215;-51
2021/06/25 03:06:41;;;;;;;1.40;1.30;;;19.20;99.90;;;;;;5073533;28;20687;-51
2021/06/25 03:09:06;;;;;;;2.20;1.40;;;19.20;99.90;;;;;;5073279;28;20188;-51
2021/06/25 03:11:32;;;;;;;1.67;1.57;;;19.10;99.90;;;;;;5056542;22;20300;-54
2021/06/25 03:13:58;;;;;;;1.87;1.70;;;19.00;99.90;;;;;;5021623;28;20580;-55
2021/06/25 03:16:23;;;;;;;1.70;1.30;;;18.90;99.90;;;;;;5033272;28;20604;-56
2021/06/25 03:18:49;;;;;;;1.73;1.63;;;19.00;99.90;;;;;;5033360;28;20171;-56
2021/06/25 03:21:17;;;;;;;2.23;1.90;;;19.00;99.90;;;;;;5033219;28;20179;-55
2021/06/25 03:23:42;;;;;;;1.60;1.50;;;18.90;99.90;;;;;;5033256;28;20178;-54
2021/06/25 03:26:08;;;;;;;4.03;1.70;;;18.90;99.90;;;;;;5033057;28;20473;-56
2021/06/25 03:28:34;;;;;;;3.80;2.10;;;18.90;99.90;;;;;;5033292;28;20515;-55
2021/06/25 03:30:59;;;;;;;1.57;1.47;;;18.90;99.90;;;;;;5033238;28;20187;-57
2021/06/25 03:33:25;;;;;;;1.50;1.33;;;18.90;99.90;;;;;;5033732;28;20171;-56
2021/06/25 03:35:51;;;;;;;2.50;1.90;;;18.90;99.90;;;;;;5033453;28;20527;-54
2021/06/25 03:38:17;;;;;;;1.90;1.80;;;18.90;99.90;;;;;;5015441;28;20582;-55
2021/06/25 03:40:42;;;;;;;2.10;1.57;;;18.90;99.90;;;;;;5032760;28;20422;-54
2021/06/25 03:43:08;;;;;;;2.77;1.80;;;19.00;99.90;;;;;;5033046;28;20254;-56
2021/06/25 03:45:34;;;;;;;2.07;1.43;;;18.90;99.90;;;;;;5032891;28;20183;-57
2021/06/25 03:47:59;;;;;;;1.90;1.67;;;19.00;99.90;;;;;;5035173;28;20179;-55
2021/06/25 03:50:25;;;;;;;1.57;1.47;;;19.00;99.90;;;;;;5033176;28;20202;-56
2021/06/25 03:52:51;;;;;;;1.83;1.30;;;18.80;99.90;;;;;;5032951;28;20632;-53
2021/06/25 03:55:17;;;;;;;1.50;1.40;;;18.60;99.90;;;;;;5032642;28;20198;-56
2021/06/25 03:57:43;;;;;;;1.40;1.30;;;18.60;99.90;;;;;;5032766;28;20654;-55
2021/06/25 04:00:13;;;;;;;2.60;1.70;;;18.70;99.90;;;;;;5035556;28;20816;-53
2021/06/25 04:02:39;;;;;;;1.50;1.40;;;18.60;99.90;;;;;;5037210;28;20770;-53
2021/06/25 04:05:09;;;;;;;1.60;1.50;;;18.70;99.90;;;;;;5036929;28;20402;-54
2021/06/25 04:07:37;;;;;;;1.70;1.60;;;18.70;99.90;;;;;;5037239;28;20166;-51
2021/06/25 04:10:05;;;;;;;1.70;1.60;;;18.80;99.90;;;;;;5036579;28;20438;-56
2021/06/25 04:12:31;;;;;;;2.80;1.80;;;18.80;99.90;;;;;;5036962;28;20410;-57
2021/06/25 04:14:57;;;;;;;4.07;1.40;;;18.60;99.90;;;;;;5036661;28;21021;-55
2021/06/25 04:17:22;;;;;;;2.37;1.90;;;18.60;99.90;;;;;;5037030;28;20496;-54
2021/06/25 04:19:48;;;;;;;1.90;1.80;;;18.60;99.90;;;;;;5037187;28;20597;-54
2021/06/25 04:22:14;;;;;;;1.70;1.20;;;18.60;99.90;;;;;;5036929;28;20164;-57
2021/06/25 04:24:39;;;;;;;1.60;1.50;;;18.60;99.90;;;;;;5036645;28;20175;-56
2021/06/25 04:27:06;;;;;;;1.40;1.30;;;18.70;99.90;;;;;;5036351;28;20258;-51
2021/06/25 04:29:33;;;;;;;7.73;1.87;;;18.80;99.90;;;;;;5036251;28;20182;-55
2021/06/25 04:31:59;;;;;;;1.57;1.47;;;18.80;99.90;;;;;;5036849;28;20433;-58
2021/06/25 04:34:25;;;;;;;3.20;1.47;;;18.80;99.90;;;;;;5036326;28;20453;-54
2021/06/25 04:36:50;;;;;;;1.50;1.40;;;18.80;99.90;;;;;;5036447;28;20409;-54
2021/06/25 04:39:16;;;;;;;2.13;1.70;;;18.80;99.90;;;;;;5036320;28;20155;-56
2021/06/25 04:41:42;;;;;;;3.23;1.30;;;18.90;99.90;;;;;;5036047;28;20579;-56
2021/06/25 04:44:08;;;;;;;1.40;1.30;;;19.00;99.90;;;;;;5036236;28;20190;-54
2021/06/25 04:46:34;;;;;;;1.57;1.47;;;19.00;99.90;;;;;;5036206;28;20251;-52
2021/06/25 04:49:00;;;;;;;1.60;1.50;;;19.10;99.90;;;;;;5036407;28;20191;-54
2021/06/25 04:51:26;;;;;;;1.70;1.60;;;18.90;99.90;;;;;;5036290;28;20779;-55
2021/06/25 04:53:52;;;;;;;1.20;1.00;;;19.00;99.90;;;;;;5036147;28;20548;-54
2021/06/25 04:56:18;;;;;;;1.80;1.70;;;18.90;99.90;;;;;;5035946;28;20195;-55
2021/06/25 04:58:44;;;;;;;1.20;1.10;;;18.80;99.90;;;;;;5035834;28;20405;-56
2021/06/25 05:01:10;;;;;;;1.30;1.20;;;18.90;99.90;;;;;;5035922;28;20422;-54
2021/06/25 05:03:37;;;;;;;1.53;1.43;;;18.90;99.90;;;;;;5036269;28;20194;-54
2021/06/25 05:06:03;;;;;;;1.80;1.70;;;19.00;99.90;;;;;;5036135;28;20167;-57
2021/06/25 05:08:29;;;;;;;1.90;1.80;;;19.00;99.90;;;;;;5036132;28;20506;-52
2021/06/25 05:10:55;;;;;;;1.47;1.37;;;18.80;99.90;;;;;;5034743;28;20926;-56
2021/06/25 05:13:20;;;;;;;1.43;1.30;;;18.70;99.90;;;;;;5035635;28;20174;-54
2021/06/25 05:15:46;;;;;;;2.00;1.20;;;18.90;99.90;;;;;;5035543;28;20198;-56
2021/06/25 05:18:16;;;;;;;1.70;1.60;;;18.90;99.90;;;;;;5035652;28;20195;-52
2021/06/25 05:20:43;;;;;;;2.73;1.70;;;18.70;99.90;;;;;;5035600;28;20279;-56
2021/06/25 05:23:10;;;;;;;1.37;1.27;;;18.70;99.90;;;;;;5035587;28;20394;-55
2021/06/25 05:25:36;;;;;;;1.87;1.57;;;18.90;99.90;;;;;;5035406;28;20442;-55
2021/06/25 05:28:02;;;;;;;1.67;1.50;;;19.10;99.90;;;;;;5035603;28;20452;-56
2021/06/25 05:30:28;;;;;;;5.03;2.13;;;19.10;99.90;;;;;;5035716;28;20820;-56
2021/06/25 05:32:54;;;;;;;3.30;1.83;;;18.90;99.90;;;;;;5035414;28;20398;-56
2021/06/25 05:35:20;;;;;;;1.57;1.47;;;18.90;99.90;;;;;;5017564;28;20191;-57
2021/06/25 05:37:46;;;;;;;1.60;1.50;;;19.00;99.90;;;;;;5035482;28;20406;-56
2021/06/25 05:40:12;;;;;;;1.53;1.43;;;19.10;99.90;;;;;;5035120;28;20192;-55
2021/06/25 05:42:37;;;;;;;4.30;1.70;;;18.90;99.90;;;;;;5035354;28;20533;-57
2021/06/25 05:45:04;;;;;;;2.00;1.70;;;19.10;99.90;;;;;;5016981;28;20410;-56
2021/06/25 05:47:30;;;;;;;2.03;1.40;;;19.00;99.90;;;;;;5037844;28;20221;-55
2021/06/25 05:49:55;;;;;;;4.53;1.50;;;19.00;99.90;;;;;;5035453;28;20446;-52
2021/06/25 05:52:21;;;;;;;2.00;1.43;;;19.00;99.90;;;;;;5035380;28;20177;-56
2021/06/25 05:54:47;;;;;;;2.53;1.30;;;19.00;99.90;;;;;;5035500;28;20348;-54
2021/06/25 05:57:12;;;;;;;1.40;1.30;;;19.10;99.90;;;;;;5034360;28;20167;-55
2021/06/25 05:59:38;;;;;;;1.50;1.40;;;19.00;99.90;;;;;;5034347;28;20169;-57
2021/06/25 06:02:04;;;;;;;1.70;1.30;;;19.00;99.90;;;;;;5035486;28;20176;-58
2021/06/25 06:04:29;;;;;;;2.70;1.43;;;19.00;99.90;;;;;;5023846;28;20191;-55
2021/06/25 06:06:55;;;;;;;2.07;1.00;;;19.00;99.90;;;;;;5032707;28;20410;-53
2021/06/25 06:09:21;;;;;;;2.80;1.57;;;19.00;99.90;;;;;;5016866;28;20549;-56
2021/06/25 06:11:47;;;;;;;2.03;1.10;;;19.10;99.90;;;;;;5034229;28;20211;-54
2021/06/25 06:14:13;;;;;;;1.10;1.00;;;19.30;99.90;;;;;;5034364;28;20461;-54
2021/06/25 06:16:38;;;;;;;1.50;1.40;;;19.10;99.90;;;;;;5034588;28;20405;-56
2021/06/25 06:19:05;;;;;;;1.87;1.47;;;18.80;99.90;;;;;;5034700;28;20658;-54
2021/06/25 06:31:10;;;;;;;1.40;1.30;;;18.90;99.90;;;;;;5034613;28;20195;-57
2021/06/25 06:32:44;;;;;;;2.20;1.67;;;18.90;99.90;;;;;;5034296;28;20800;-56
2021/06/25 06:35:10;;;;;;;1.50;1.40;;;19.00;99.90;;;;;;5034053;28;20441;-55
2021/06/25 06:37:35;;;;;;;1.80;1.60;;;19.20;99.90;;;;;;5034291;28;20715;-54
2021/06/25 06:40:01;;;;;;;2.20;1.73;;;19.50;99.90;;;;;;5034270;28;20179;-56
2021/06/25 06:42:27;;;;;;;3.70;1.70;;;19.70;99.90;;;;;;5033726;28;20171;-55
2021/06/25 06:44:52;;;;;;;1.40;1.30;;;19.70;99.90;;;;;;5033594;28;20198;-57
2021/06/25 06:47:18;;;;;;;2.70;1.37;;;19.70;99.90;;;;;;5034123;28;20175;-54
2021/06/25 06:49:43;;;;;;;2.47;1.70;;;19.70;99.90;;;;;;5034079;28;20175;-52
2021/06/25 06:52:09;;;;;;;3.23;1.80;;;19.70;99.90;;;;;;5033904;28;20175;-57
2021/06/25 06:54:34;;;;;;;3.23;1.70;;;19.70;99.90;;;;;;5033720;28;20683;-58
2021/06/25 06:57:00;;;;;;;2.70;1.83;;;19.60;99.90;;;;;;5033336;28;20179;-56
2021/06/25 06:59:26;;;;;;;2.43;2.23;;;19.40;99.90;;;;;;5033634;28;20259;-56
2021/06/25 07:01:51;;;;;;;2.00;1.90;;;19.30;99.90;;;;;;5033662;28;20582;-53
2021/06/25 07:04:17;;;;;;;2.30;2.00;;;19.40;99.90;;;;;;5032948;28;20189;-53
2021/06/25 07:06:42;;;;;;;2.57;2.33;;;19.20;99.90;;;;;;5033100;28;20640;-53
2021/06/25 07:09:08;;;;;;;2.43;2.00;;;19.00;99.90;;;;;;5033563;28;20175;-54
2021/06/25 07:11:33;;;;;;;2.23;2.00;;;19.20;99.90;;;;;;5033091;28;20746;-53
2021/06/25 07:13:59;;;;;;;2.27;1.20;;;19.40;99.90;;;;;;5033040;28;20751;-51
2021/06/25 07:16:25;;;;;;;1.43;1.33;;;19.20;99.90;;;;;;5033361;28;20183;-53
2021/06/25 07:18:50;;;;;;;1.73;1.40;;;19.50;99.90;;;;;;5033547;28;20482;-56
2021/06/25 07:21:18;;;;;;;2.20;1.80;;;19.40;99.90;;;;;;5033050;28;20699;-57
2021/06/25 07:23:44;;;;;;;1.40;1.30;;;19.50;99.90;;;;;;5033457;28;20182;-55
2021/06/25 07:26:10;;;;;;;2.17;1.80;;;19.60;99.90;;;;;;5033010;28;20895;-57
2021/06/25 07:28:36;;;;;;;2.37;2.00;;;19.50;99.90;;;;;;5032979;28;20159;-55
2021/06/25 07:31:02;;;;;;;3.60;2.50;;;19.50;99.90;;;;;;5033028;28;20321;-55
2021/06/25 07:33:29;;;;;;;3.70;3.40;;;19.50;99.90;;;;;;5033029;28;20405;-53
2021/06/25 07:35:54;;;;;;;3.63;3.33;;;19.60;99.90;;;;;;5032760;28;20572;-55
2021/06/25 07:38:20;;;;;;;4.27;3.87;;;19.20;99.90;;;;;;5015277;28;20398;-53
2021/06/25 07:40:46;;;;;;;3.40;3.20;;;19.20;99.90;;;;;;5032684;28;20549;-56
2021/06/25 07:43:11;;;;;;;3.83;3.43;;;19.10;99.90;;;;;;5033193;28;20163;-55
2021/06/25 07:45:37;;;;;;;3.83;3.43;;;19.10;99.90;;;;;;5035731;28;20274;-55
2021/06/25 07:48:03;;;;;;;4.80;4.37;;;19.30;99.90;;;;;;5033100;28;20172;-55
2021/06/25 07:50:29;;;;;;;4.53;4.13;;;18.90;99.90;;;;;;5033102;28;20199;-55
2021/06/25 07:52:55;;;;;;;4.53;3.93;;;18.80;99.90;;;;;;5032849;28;20410;-54
2021/06/25 07:55:20;;;;;;;4.13;3.77;;;18.80;99.90;;;;;;5032937;28;20195;-56
2021/06/25 07:57:46;;;;;;;4.90;4.40;;;19.10;99.90;;;;;;5032859;28;20167;-53
2021/06/25 08:00:13;;;;;;;5.10;4.70;;;19.10;99.90;;;;;;5032595;28;20179;-53
2021/06/25 08:02:40;;;;;;;3.83;3.40;;;19.20;99.90;;;;;;5032699;28;20167;-54
2021/06/25 08:05:06;;;;;;;3.70;3.40;;;19.50;99.90;;;;;;5032547;28;20446;-51
2021/06/25 08:07:32;;;;;;;3.33;2.67;;;19.70;99.90;;;;;;5032638;28;20410;-53
2021/06/25 08:09:57;;;;;;;3.87;3.23;;;19.80;99.90;;;;;;5032470;28;21008;-55
2021/06/25 08:12:23;;;;;;;3.10;2.80;;;20.10;99.90;;;;;;5032691;28;20155;-52
2021/06/25 08:14:49;;;;;;;3.87;3.57;;;20.50;99.90;;;;;;5032717;28;20191;-54
2021/06/25 08:17:14;;;;;;;3.70;3.40;;;20.70;99.90;;;;;;5033039;28;20519;-54
2021/06/25 08:19:41;;;;;;;3.63;2.90;;;20.90;99.90;;;;;;5032898;28;20160;-54
2021/06/25 08:22:07;;;;;;;3.40;3.07;;;20.90;99.90;;;;;;5032833;28;20230;-55
2021/06/25 08:24:34;;;;;;;2.80;2.60;;;20.90;99.90;;;;;;5032880;28;20394;-54
2021/06/25 08:27:00;;;;;;;2.70;2.50;;;21.20;99.90;;;;;;5032242;28;20434;-54
2021/06/25 08:29:25;;;;;;;3.40;2.87;;;21.20;99.90;;;;;;5032428;28;20898;-57
2021/06/25 08:31:51;;;;;;;3.17;2.93;;;21.40;99.90;;;;;;5032352;28;20427;-57
2021/06/25 08:34:17;;;;;;;3.13;2.90;;;21.70;99.90;;;;;;5032468;28;20667;-56
2021/06/25 08:36:42;;;;;;;3.47;3.13;;;21.60;99.90;;;;;;5032299;28;20171;-55
2021/06/25 08:39:09;;;;;;;3.87;3.10;;;21.50;99.90;;;;;;5032487;28;20716;-56
2021/06/25 08:41:36;;;;;;;2.80;2.60;;;21.20;99.90;;;;;;5032371;28;20192;-53
2021/06/25 08:44:04;;;;;;;2.90;2.70;;;21.10;99.90;;;;;;5032322;28;20421;-55
2021/06/25 08:46:33;;;;;;;4.57;3.70;;;20.60;99.90;;;;;;5033748;28;20552;-57
2021/06/25 08:49:04;;;;;;;3.47;2.97;;;20.40;99.90;;;;;;5036116;28;20402;-56
2021/06/25 08:51:33;;;;;;;2.70;2.43;;;20.00;99.90;;;;;;5036139;28;20426;-55
2021/06/25 08:53:59;;;;;;;3.40;3.17;;;19.50;99.90;;;;;;5036059;28;20468;-57
2021/06/25 08:56:29;;;;;;;3.47;3.17;;;19.20;99.90;;;;;;5030763;28;20783;-53
2021/06/25 08:58:55;;;;;;;3.70;3.40;;;19.30;99.90;;;;;;5027438;28;20207;-54
2021/06/25 09:01:22;;;;;;;3.17;2.90;;;19.50;99.90;;;;;;5036084;28;20949;-57
2021/06/25 09:03:52;;;;;;;3.33;3.00;;;19.50;99.90;;;;;;5035832;28;20182;-54
2021/06/25 09:06:18;;;;;;;3.40;2.93;;;19.30;99.90;;;;;;5035530;28;20409;-55
2021/06/25 09:08:43;;;;;;;3.03;2.73;;;19.30;99.90;;;;;;5035517;28;20414;-53
2021/06/25 09:11:25;;;;;;;3.93;3.50;;;19.40;99.90;;;;;;5067174;23;20313;-54
2021/06/25 09:13:59;;;;;;;4.13;3.73;;;19.50;99.90;;;;;;5055767;28;20210;-54
2021/06/25 09:16:34;;;;;;;4.40;4.00;;;19.20;99.90;;;;;;5055656;28;20455;-51
2021/06/25 09:19:06;;;;;;;6.77;4.10;;;19.20;99.90;;;;;;5055766;28;20479;-51
2021/06/25 09:21:36;;;;;;;5.00;4.50;;;19.40;99.90;;;;;;5055662;28;20510;-54
2021/06/25 09:24:18;;;;;;;4.23;3.90;;;19.50;99.90;;;;;;5055589;28;20972;-49
2021/06/25 09:26:44;;;;;;;4.33;3.80;;;19.30;99.90;;;;;;5055238;28;20759;-51
2021/06/25 09:29:34;;;;;;;3.90;3.60;;;19.00;99.90;;;;;;5055193;28;20420;-48
2021/06/25 09:32:05;;;;;;;4.07;3.67;;;19.30;99.90;;;;;;5055260;28;20428;-52
2021/06/25 09:34:40;;;;;;;4.80;4.40;;;19.20;99.90;;;;;;5055113;28;20488;-55
2021/06/25 09:37:09;;;;;;;4.63;4.27;;;19.40;99.90;;;;;;5055407;28;20424;-51
2021/06/25 09:39:34;;;;;;;4.40;4.00;;;19.40;99.90;;;;;;5057611;28;20947;-56
2021/06/25 09:42:00;;;;;;;5.20;4.80;;;19.70;99.90;;;;;;5054998;28;20433;-53
2021/06/25 09:44:26;;;;;;;4.40;3.90;;;19.70;99.90;;;;;;5055124;28;20213;-52
2021/06/25 09:46:54;;;;;;;4.33;4.03;;;19.60;99.90;;;;;;5055416;28;20170;-53
2021/06/25 09:49:28;;;;;;;5.60;5.10;;;19.50;99.90;;;;;;5054995;28;20179;-52
2021/06/25 09:52:02;;;;;;;5.40;4.90;;;19.30;99.90;;;;;;5055224;28;20428;-54
2021/06/25 09:54:28;;;;;;;4.53;4.13;;;19.60;99.90;;;;;;5054985;28;20448;-51
2021/06/25 09:57:12;;;;;;;4.43;4.13;;;19.90;99.90;;;;;;5054542;28;20403;-54
2021/06/25 10:02:20;;;;;;;5.50;5.07;;;19.70;99.90;;;;;;5055215;28;20515;-52
2021/06/25 10:04:48;;;;;;;5.93;5.43;;;19.80;99.90;;;;;;5054681;28;20467;-56
2021/06/25 10:07:17;;;;;;;6.20;5.70;;;19.90;99.90;;;;;;5054438;28;20409;-56
2021/06/25 10:09:44;;;;;;;6.40;5.83;;;19.70;99.90;;;;;;5054789;28;20414;-52
2021/06/25 10:12:11;;;;;;;5.97;5.47;;;19.80;99.90;;;;;;5054042;28;20507;-50
2021/06/25 10:14:38;;;;;;;6.80;6.20;;;20.00;99.90;;;;;;5054031;28;20451;-54
2021/06/25 10:17:05;;;;;;;8.20;7.50;;;19.90;99.90;;;;;;5054762;28;20814;-54
2021/06/25 10:19:32;;;;;;;7.43;6.73;;;20.00;99.90;;;;;;5055169;28;20397;-49
2021/06/25 10:22:02;;;;;;;7.40;6.80;;;20.00;99.90;;;;;;5054658;28;20508;-54
2021/06/25 10:24:32;;;;;;;7.43;6.83;;;20.00;99.90;;;;;;5054608;28;20428;-52
2021/06/25 10:27:00;;;;;;;9.47;8.57;;;19.80;99.90;;;;;;5054190;28;20458;-52
2021/06/25 10:29:26;;;;;;;8.00;7.20;;;19.80;99.90;;;;;;5053822;28;20397;-55
2021/06/25 10:31:54;;;;;;;8.53;7.67;;;19.80;99.90;;;;;;5054100;28;20517;-54
2021/06/25 10:34:20;;;;;;;10.83;7.57;;;19.90;99.90;;;;;;5052650;28;20510;-52
2021/06/25 10:36:49;;;;;;;7.67;6.97;;;20.10;99.90;;;;;;5054345;28;20504;-55
2021/06/25 10:39:15;;;;;;;8.17;7.40;;;20.30;99.90;;;;;;5054025;28;20166;-53
2021/06/25 10:41:58;;;;;;;9.17;8.37;;;20.20;99.90;;;;;;5053872;28;20421;-55
2021/06/25 10:44:51;;;;;;;8.23;7.53;;;20.20;99.90;;;;;;5053780;28;20198;-51
2021/06/25 10:47:19;;;;;;;8.87;8.07;;;20.30;99.90;;;;;;5053778;28;20405;-53
2021/06/25 10:50:04;;;;;;;8.70;7.90;;;19.90;99.90;;;;;;5053676;28;20555;-49
2021/06/25 10:52:32;;;;;;;10.13;9.20;;;20.00;99.90;;;;;;5053703;28;20421;-51
2021/06/25 10:55:08;;;;;;;8.97;8.17;;;20.10;99.90;;;;;;5053322;28;20479;-50
2021/06/25 10:57:35;;;;;;;10.33;9.23;;;20.40;99.90;;;;;;5053393;28;20459;-51
2021/06/25 11:00:01;;;;;;;10.40;9.40;;;20.40;99.90;;;;;;5053031;28;20413;-52
2021/06/25 11:02:59;;;;;;;10.93;9.83;;;20.20;99.90;;;;;;5053754;28;20795;-52
2021/06/25 11:05:25;;;;;;;10.60;9.60;;;19.80;99.90;;;;;;5020184;28;20214;-51
2021/06/25 11:07:52;;;;;;;10.57;9.67;;;19.70;99.90;;;;;;5053466;28;20440;-52
2021/06/25 11:10:25;;;;;;;10.30;9.40;;;19.80;99.90;;;;;;5052846;28;20170;-54
2021/06/25 11:13:10;;;;;;;11.40;10.20;;;20.00;99.90;;;;;;5053191;28;20400;-55
2021/06/25 11:15:36;;;;;;;10.80;9.83;;;20.10;99.90;;;;;;5052619;28;20461;-50
2021/06/25 11:18:23;;;;;;;11.30;10.30;;;20.10;99.90;;;;;;5051971;28;20409;-54
2021/06/25 11:20:56;;;;;;;9.50;8.60;;;20.20;99.90;;;;;;5052875;28;20437;-52
2021/06/25 11:23:35;;;;;;;11.40;10.30;;;20.00;99.90;;;;;;5053341;28;20874;-54
2021/06/25 11:26:02;;;;;;;11.37;10.27;;;20.20;99.90;;;;;;5053491;28;20385;-55
2021/06/25 11:28:32;;;;;;;10.30;9.40;;;20.10;99.90;;;;;;5052871;28;20405;-53
2021/06/25 11:31:13;;;;;;;11.10;10.20;;;20.20;99.90;;;;;;5052805;28;20921;-52
2021/06/25 11:34:02;;;;;;;10.73;9.73;;;20.20;99.90;;;;;;5053080;28;20454;-52
2021/06/25 11:36:55;;;;;;;11.07;10.07;;;20.20;99.90;;;;;;5053593;28;20476;-54
2021/06/25 11:39:35;;;;;;;13.83;11.03;;;20.20;99.90;;;;;;5052545;28;20417;-49
2021/06/25 11:42:10;;;;;;;11.27;10.17;;;20.30;99.90;;;;;;5052440;28;20448;-53
2021/06/25 11:44:41;;;;;;;13.37;11.93;;;20.30;99.90;;;;;;5055098;28;20971;-53
2021/06/25 11:47:15;;;;;;;15.83;14.23;;;20.40;99.90;;;;;;5052679;28;20424;-52
2021/06/25 11:50:10;;;;;;;14.40;12.90;;;20.60;99.90;;;;;;5050432;28;20428;-54
2021/06/25 11:52:43;;;;;;;14.90;13.40;;;20.60;99.90;;;;;;5052928;28;20478;-53
2021/06/25 11:55:13;;;;;;;13.33;12.03;;;20.90;99.90;;;;;;5051765;28;20476;-55
2021/06/25 11:57:41;;;;;;;12.97;11.77;;;21.20;99.90;;;;;;5052570;28;20429;-54
2021/06/25 12:00:07;;;;;;;14.50;13.13;;;21.60;99.90;;;;;;5051167;28;20409;-53
2021/06/25 12:02:41;;;;;;;13.10;11.80;;;21.60;99.90;;;;;;5052763;28;20420;-51
2021/06/25 12:05:08;;;;;;;13.60;12.30;;;22.00;99.90;;;;;;5052912;28;20758;-55
2021/06/25 12:07:35;;;;;;;12.07;10.97;;;22.10;99.90;;;;;;5052800;28;20499;-52
2021/06/25 12:10:03;;;;;;;9.10;8.27;;;22.30;99.90;;;;;;5052813;28;20405;-53
2021/06/25 12:12:30;;;;;;;10.73;9.67;;;22.30;99.90;;;;;;5052046;28;20275;-51
2021/06/25 12:15:00;;;;;;;8.83;8.03;;;21.90;99.90;;;;;;5052204;28;20964;-56
2021/06/25 12:17:45;;;;;;;8.43;7.63;;;21.90;99.90;;;;;;5053170;28;20459;-55
2021/06/25 12:20:23;;;;;;;8.53;7.67;;;21.70;99.90;;;;;;5052787;28;20381;-53
2021/06/25 12:23:04;;;;;;;9.43;6.77;;;21.80;99.90;;;;;;5056421;28;20435;-56
2021/06/25 12:25:49;;;;;;;6.40;5.80;;;21.80;99.90;;;;;;5056871;28;20385;-52
2021/06/25 12:28:19;;;;;;;7.07;6.37;;;22.00;99.90;;;;;;5056493;28;20462;-53
2021/06/25 12:30:57;;;;;;;6.30;5.80;;;22.10;99.90;;;;;;5056383;28;20467;-49
2021/06/25 12:33:26;;;;;;;7.17;6.43;;;22.00;99.90;;;;;;5056820;28;20421;-53
2021/06/25 12:35:54;;;;;;;5.60;5.20;;;22.30;99.90;;;;;;5056663;28;20545;-56
2021/06/25 12:38:21;;;;;;;7.53;6.83;;;22.80;99.90;;;;;;5056266;28;20846;-52
2021/06/25 12:40:49;;;;;;;7.03;6.43;;;23.10;99.90;;;;;;5056669;28;20425;-48
2021/06/25 12:43:19;;;;;;;6.00;5.50;;;22.80;99.90;;;;;;5055972;28;20397;-55
2021/06/25 12:45:49;;;;;;;5.50;5.00;;;22.70;99.90;;;;;;5056151;28;20552;-55
2021/06/25 12:48:17;;;;;;;7.03;5.03;;;22.50;99.90;;;;;;5056271;28;20901;-55
2021/06/25 12:50:44;;;;;;;4.87;4.47;;;22.60;99.90;;;;;;5056060;28;20436;-51
2021/06/25 12:53:15;;;;;;;6.63;5.47;;;22.40;99.90;;;;;;5056055;28;20424;-54
2021/06/25 12:55:44;;;;;;;5.67;4.90;;;22.20;99.90;;;;;;5056274;28;20448;-55
2021/06/25 12:58:13;;;;;;;6.20;5.60;;;22.40;99.90;;;;;;5056267;28;20765;-52
2021/06/25 13:00:40;;;;;;;6.10;5.60;;;22.10;99.90;;;;;;5055600;28;20456;-55